Nearby METAR Reports

 

KMTN - Baltimore/Martin, Maryland, USA
Distance from station: SSE 8mi, 13km
Updated: Fri, 12-Feb-2016 6:50pm EST
Partly cloudy
Partly cloudy
 Wind from calm
Wind: Calm
Temperature: 25°F , -4°C
Dew Point: 19°F , -7°C
Humidity: 80%
Barometer: 30.06 inHg , 1017.9 hPa
Clouds: Partly cloudy
Visibility: 10 miles , 16 km
Cloud details: Partly cloudy 700 ft
Partly cloudy 1100 ft
2016/02/12 23:50 KMTN 122350Z 00000KT 10SM SCT007 SCT011 M04/M07 A3006
KDMH - Baltimore/Dwntwn, Maryland, USA
Distance from station: SW 12mi, 19km
Updated: Fri, 12-Feb-2016 6:54pm EST

 
Temperature: 25°F , -4°C
Dew Point: 16°F , -9°C
Humidity: 69%
Barometer: 30.03 inHg , 1016.9 hPa
2016/02/12 23:54 KDMH 122354Z AUTO M04/M09 A3003 RMK AO1 SLP167 T10391094 11017 21050 55008
 
KBWI - Balto/Wash Intl, Maryland, USA
Distance from station: SSW 20mi, 33km
Updated: Fri, 12-Feb-2016 6:54pm EST
Overcast
Overcast
 Wind from ENE
Wind: ENE 7 mph , 11 km/h
Temperature: 25°F , -4°C
Wind Chill: 17°F , -8°C
Dew Point: 14°F , -10°C
Humidity: 63%
Barometer: 30.02 inHg , 1016.6 hPa
Clouds: Overcast
Visibility: 10 miles , 16 km
Cloud details: Few Clouds 7000 ft
Mostly cloudy 14000 ft
Overcast 25000 ft
2016/02/12 23:54 KBWI 122354Z 06006KT 10SM FEW070 BKN140 OVC250 M04/M10 A3002 RMK AO2 SLP166 60000 T10391100 11017 21050 57008
KDMW - Carroll Cnty, Maryland, USA
Distance from station: WNW 30mi, 48km
Updated: Fri, 12-Feb-2016 7:00pm EST
Overcast
Overcast
 Wind from calm
Wind: Calm
Temperature: 23°F , -5°C
Dew Point: 16°F , -9°C
Humidity: 74%
Barometer: 29.96 inHg , 1014.6 hPa
Clouds: Overcast
Visibility: 10 miles , 16 km
Cloud details: Partly cloudy 5000 ft
Mostly cloudy 7500 ft
Overcast 9000 ft
2016/02/13 00:00 KDMW 130000Z AUTO 00000KT 10SM SCT050 BKN075 OVC090 M05/M09 A2996 RMK AO2
 
KNAK - Annapolis/Naval, Maryland, USA
Distance from station: S 30mi, 48km
Updated: Fri, 12-Feb-2016 6:54pm EST
Overcast
Overcast
 Wind from SSE
Wind: SSE 9 mph , 15 km/h
Temperature: 27°F , -3°C
Wind Chill: 18°F , -8°C
Dew Point: 18°F , -8°C
Humidity: 69%
Barometer: 30.03 inHg , 1016.9 hPa
Clouds: Overcast
Visibility: 9 miles , 14 km
Cloud details: Partly cloudy 3400 ft
Mostly cloudy 8000 ft
Overcast 9500 ft
2016/02/12 23:54 KNAK 122354Z AUTO 15008KT 9SM SCT034 BKN080 OVC095 M03/M08 A3003 RMK AO2 SNB43E53 SLP169 P0000 60000 T10281078 11028 21039 55011
KW29 - Stevensville, Maryland, USA
Distance from station: SSE 31mi, 50km
Updated: Fri, 12-Feb-2016 7:02pm EST
Light Snow
Light Snow
 Wind from calm
Wind: Calm
Temperature: 27°F , -3°C
Dew Point: 18°F , -8°C
Humidity: 69%
Barometer: 30.03 inHg , 1016.9 hPa
Summary: Light Snow
Visibility: 7 miles , 11 km
2016/02/13 00:02 KW29 130002Z AUTO 00000KT 7SM -SN M03/M08 A3003 RMK AO1
 
KCGS - College Park, Maryland, USA
Distance from station: SW 38mi, 61km
Updated: Fri, 12-Feb-2016 7:00pm EST
Clear
Clear
 Wind from N
Wind: N 5 mph , 7 km/h
Temperature: 30°F , -1°C
Wind Chill: 25°F , -4°C
Dew Point: 14°F , -10°C
Humidity: 51%
Barometer: 30.01 inHg , 1016.3 hPa
Clouds: Clear
Visibility: 10 miles , 16 km
2016/02/13 00:00 KCGS 130000Z AUTO 01004KT 10SM CLR M01/M10 A3001 RMK AO1
KGAI - Gaithersburg, Maryland, USA
Distance from station: WSW 40mi, 65km
Updated: Fri, 12-Feb-2016 6:55pm EST
Clear
Clear
 Wind from calm
Wind: Calm
Temperature: 25°F , -4°C
Dew Point: 9°F , -13°C
Humidity: 50%
Barometer: 30.02 inHg , 1016.6 hPa
Clouds: Clear
Visibility: 10 miles , 16 km
2016/02/12 23:55 KGAI 122355Z AUTO 00000KT 10SM CLR M04/M13 A3002 RMK AO1 11020 21040 57007
 
KTHV - York, Pennsylvania, USA
Distance from station: NNW 40mi, 65km
Updated: Fri, 12-Feb-2016 6:53pm EST
Overcast
Overcast
 Wind from calm
Wind: Calm
Temperature: 18°F , -8°C
Dew Point: 10°F , -12°C
Humidity: 73%
Barometer: 29.98 inHg , 1015.2 hPa
Clouds: Overcast
Visibility: 10 miles , 16 km
Cloud details: Overcast 6500 ft
2016/02/12 23:53 KTHV 122353Z AUTO 00000KT 10SM OVC065 M08/M12 A2998 RMK AO2 SLP167 T10781122 11044 21078 56012
KFDK - Frederick, Maryland, USA
Distance from station: W 47mi, 75km
Updated: Fri, 12-Feb-2016 6:47pm EST
Overcast
Overcast
 Wind from calm
Wind: Calm
Temperature: 25°F , -4°C
Dew Point: 18°F , -8°C
Humidity: 74%
Barometer: 30.03 inHg , 1016.9 hPa
Clouds: Overcast
Visibility: 10 miles , 16 km
Cloud details: Mostly cloudy 5000 ft
Overcast 6500 ft
2016/02/12 23:47 KFDK 122347Z 00000KT 10SM BKN050 OVC065 M04/M08 A3003
 
KESN - Easton/Newnam, Maryland, USA
Distance from station: SSE 48mi, 78km
Updated: Fri, 12-Feb-2016 3:50pm EST
NOT Current
Mostly cloudy
Mostly cloudy
 Wind from SSW
Wind: SSW 6 mph , 9 km/h
Temperature: 28°F , -2°C
Wind Chill: 21°F , -6°C
Dew Point: 5°F , -15°C
Humidity: 37%
Barometer: 30.09 inHg , 1019 hPa
Clouds: Mostly cloudy
Visibility: 10 miles , 16 km
Cloud details: Mostly cloudy 20000 ft
2016/02/12 20:50 KESN 122050Z 20005KT 10SM BKN200 M02/M15 A3009
KDCA - Washington/Natl, Washington D.c., USA
Distance from station: SW 49mi, 79km
Updated: Fri, 12-Feb-2016 6:52pm EST
Mostly cloudy
Mostly cloudy
 Wind from SSE
Wind: SSE 6 mph , 9 km/h
Temperature: 28°F , -2°C
Wind Chill: 21°F , -6°C
Dew Point: 12°F , -11°C
Humidity: 51%
Barometer: 30.02 inHg , 1016.6 hPa
Clouds: Mostly cloudy
Visibility: 10 miles , 16 km
Cloud details: Mostly cloudy 12000 ft
2016/02/12 23:52 KDCA 122352Z 15005KT 10SM BKN120 M02/M11 A3002 RMK AO2 SLP165 T10221111 11006 21022 55009
 
KLNS - Lancaster, Pennsylvania, USA
Distance from station: N 49mi, 79km
Updated: Fri, 12-Feb-2016 6:53pm EST
Overcast
Overcast
 Wind from calm
Wind: Calm
Temperature: 21°F , -6°C
Dew Point: 9°F , -13°C
Humidity: 58%
Barometer: 29.99 inHg , 1015.6 hPa
Clouds: Overcast
Visibility: 10 miles , 16 km
Cloud details: Mostly cloudy 5000 ft
Overcast 7000 ft
2016/02/12 23:53 KLNS 122353Z 00000KT 10SM BKN050 OVC070 M06/M13 A2999 RMK AO2 SLP163 T10611128 11056 21067 56014
KILG - Wilmington, Delaware, USA
Distance from station: ENE 50mi, 81km
Updated: Fri, 12-Feb-2016 6:58pm EST
Light snow, Overcast
Light snow, Overcast
 Wind from W
Wind: W 3 mph , 6 km/h
Temperature: 21°F , -6°C
Dew Point: 12°F , -11°C
Humidity: 68%
Barometer: 30.04 inHg , 1017.3 hPa
Summary: Light Snow
Clouds: Overcast
Visibility: 3 miles , 5 km
Cloud details: Overcast 3900 ft
2016/02/12 23:58 KILG 122358Z 26003KT 3SM -SN OVC039 M06/M11 A3004 RMK AO2 P0000 T10561106